createdAt,value
2022-12-03T00:00:48.121Z,0.56
2022-12-03T00:01:48.052Z,0.51
2022-12-03T00:02:48.036Z,0.49
2022-12-03T00:03:48.220Z,0.57
2022-12-03T00:04:47.830Z,0.56
2022-12-03T00:05:49.095Z,0.59
2022-12-03T00:06:47.733Z,0.51
2022-12-03T00:07:47.682Z,0.56
2022-12-03T00:08:47.642Z,0.56
2022-12-03T00:09:47.467Z,0.62
2022-12-03T00:10:47.381Z,0.37
2022-12-03T00:11:47.302Z,0.48
2022-12-03T00:12:47.247Z,0.51
2022-12-03T00:13:47.188Z,0.48
2022-12-03T00:14:47.090Z,0.56
2022-12-03T00:15:47.091Z,0.51
2022-12-03T00:16:47.010Z,0.40
2022-12-03T00:17:46.946Z,0.38
2022-12-03T00:18:46.822Z,0.37
2022-12-03T00:19:46.742Z,0.43
2022-12-03T00:20:46.664Z,0.38
2022-12-03T00:21:46.605Z,0.30
2022-12-03T00:22:46.519Z,0.40
2022-12-03T00:23:46.454Z,0.43
2022-12-03T00:24:46.358Z,0.41
2022-12-03T00:25:46.301Z,0.33
2022-12-03T00:26:46.258Z,0.38
2022-12-03T00:27:46.156Z,0.48
2022-12-03T00:28:46.100Z,0.41
2022-12-03T00:29:46.073Z,0.56
2022-12-03T00:30:46.029Z,0.52
2022-12-03T00:31:45.946Z,0.56
2022-12-03T00:32:45.812Z,0.52
2022-12-03T00:33:45.714Z,0.45
2022-12-03T00:34:45.649Z,0.53
2022-12-03T00:35:45.598Z,0.43
2022-12-03T00:36:45.513Z,0.44
2022-12-03T00:37:45.597Z,0.44
2022-12-03T00:38:45.411Z,0.48
2022-12-03T00:39:45.293Z,0.51
2022-12-03T00:40:45.224Z,0.43
2022-12-03T00:41:45.144Z,0.40
2022-12-03T00:42:45.062Z,0.48
2022-12-03T00:43:45.099Z,0.48
2022-12-03T00:44:44.966Z,0.48
2022-12-03T00:45:44.884Z,0.60
2022-12-03T00:46:44.949Z,0.40
2022-12-03T00:47:44.756Z,0.38
2022-12-03T00:48:44.650Z,0.43
2022-12-03T00:49:44.594Z,0.40
2022-12-03T00:50:44.520Z,0.37
2022-12-03T00:51:44.497Z,0.40
2022-12-03T00:52:44.486Z,0.37
2022-12-03T00:53:44.326Z,0.41
2022-12-03T00:54:44.455Z,0.37
2022-12-03T00:55:44.186Z,0.35
2022-12-03T00:56:44.168Z,0.35
2022-12-03T00:57:43.996Z,0.31
2022-12-03T00:58:43.925Z,0.34
2022-12-03T00:59:43.834Z,0.49
2022-12-03T01:00:43.788Z,0.48
2022-12-03T01:01:43.792Z,0.44
2022-12-03T01:02:43.649Z,0.51
2022-12-03T01:03:43.629Z,0.45
2022-12-03T01:04:43.626Z,0.49
2022-12-03T01:05:43.410Z,0.45
2022-12-03T01:06:43.363Z,0.52
2022-12-03T01:07:43.479Z,0.56
2022-12-03T01:08:43.214Z,0.41
2022-12-03T01:09:43.145Z,0.51
2022-12-03T01:10:43.076Z,0.57
2022-12-03T01:11:43.042Z,0.45
2022-12-03T01:12:42.907Z,0.56
2022-12-03T01:13:42.885Z,0.53
2022-12-03T01:14:42.766Z,0.43
2022-12-03T01:15:42.777Z,0.41
2022-12-03T01:16:42.605Z,0.48
2022-12-03T01:17:42.563Z,0.38
2022-12-03T01:18:42.500Z,0.48
2022-12-03T01:19:48.048Z,0.56
2022-12-03T01:20:42.340Z,0.43
2022-12-03T01:21:42.402Z,0.43
2022-12-03T01:22:42.202Z,0.44
2022-12-03T01:23:42.098Z,0.44
2022-12-03T01:24:42.131Z,0.45
2022-12-03T01:25:41.963Z,0.56
2022-12-03T01:26:42.064Z,0.53
2022-12-03T01:27:41.833Z,0.60
2022-12-03T01:28:41.762Z,0.52
2022-12-03T01:29:41.671Z,0.51
2022-12-03T01:30:41.610Z,0.51
2022-12-03T01:31:41.671Z,0.43
2022-12-03T01:32:41.489Z,0.44
2022-12-03T01:33:41.463Z,0.45
2022-12-03T01:34:41.318Z,0.44
2022-12-03T01:35:41.242Z,0.45
2022-12-03T01:36:41.210Z,0.37
2022-12-03T01:37:41.249Z,0.44
2022-12-03T01:38:41.033Z,0.38
2022-12-03T01:39:40.957Z,0.38
2022-12-03T01:40:40.925Z,0.40
2022-12-03T01:41:40.832Z,0.41
2022-12-03T01:42:40.762Z,0.40
2022-12-03T01:43:40.692Z,0.31
2022-12-03T01:44:40.713Z,0.37
2022-12-03T01:45:40.625Z,0.31
2022-12-03T01:46:40.525Z,0.33
2022-12-03T01:47:40.385Z,0.43
2022-12-03T01:48:40.306Z,0.43
2022-12-03T01:49:40.303Z,0.45
2022-12-03T01:50:40.253Z,0.48
2022-12-03T01:51:40.187Z,0.44
2022-12-03T01:52:40.087Z,0.43
2022-12-03T01:53:39.946Z,0.49
2022-12-03T01:54:39.875Z,0.49
2022-12-03T01:55:39.803Z,0.43
2022-12-03T01:56:39.732Z,0.41
2022-12-03T01:57:39.712Z,0.44
2022-12-03T01:58:39.674Z,0.40
2022-12-03T01:59:39.552Z,0.41
2022-12-03T02:00:39.435Z,0.38
2022-12-03T02:01:39.421Z,0.44
2022-12-03T02:02:39.351Z,0.43
2022-12-03T02:03:39.331Z,0.44
2022-12-03T02:04:39.143Z,0.44
2022-12-03T02:05:39.099Z,0.44
2022-12-03T02:06:39.044Z,0.45
2022-12-03T02:07:38.991Z,0.41
2022-12-03T02:08:38.861Z,0.43
2022-12-03T02:09:38.787Z,0.40
2022-12-03T02:10:38.724Z,0.30
2022-12-03T02:11:38.679Z,0.34
2022-12-03T02:12:38.628Z,0.35
2022-12-03T02:13:38.635Z,0.41
2022-12-03T02:14:38.454Z,0.41
2022-12-03T02:15:38.409Z,0.40
2022-12-03T02:16:38.365Z,0.48
2022-12-03T02:17:38.216Z,0.41
2022-12-03T02:18:38.157Z,0.38
2022-12-03T02:19:38.068Z,0.40
2022-12-03T02:20:37.989Z,0.48
2022-12-03T02:21:37.920Z,0.59
2022-12-03T02:22:37.857Z,0.43
2022-12-03T02:23:37.825Z,0.40
2022-12-03T02:24:37.734Z,0.45
2022-12-03T02:25:37.673Z,0.43
2022-12-03T02:26:37.569Z,0.48
2022-12-03T02:27:37.509Z,0.43
2022-12-03T02:28:37.450Z,0.41
2022-12-03T02:29:37.351Z,0.43
2022-12-03T02:30:37.293Z,0.48
2022-12-03T02:31:37.298Z,0.49
2022-12-03T02:32:37.153Z,0.44
2022-12-03T02:33:37.057Z,0.43
2022-12-03T02:34:37.006Z,0.37
2022-12-03T02:35:36.919Z,0.43
2022-12-03T02:36:36.860Z,0.45
2022-12-03T02:37:36.792Z,0.49
2022-12-03T02:38:36.701Z,0.43
2022-12-03T02:39:36.638Z,0.38
2022-12-03T02:40:36.558Z,0.43
2022-12-03T02:41:36.486Z,0.38
2022-12-03T02:42:36.405Z,0.44
2022-12-03T02:43:36.349Z,0.51
2022-12-03T02:44:36.272Z,0.44
2022-12-03T02:45:36.323Z,0.49
2022-12-03T02:46:36.203Z,0.43
2022-12-03T02:47:36.087Z,0.40
2022-12-03T02:48:35.978Z,0.28
2022-12-03T02:49:35.937Z,0.37
2022-12-03T02:50:35.827Z,0.43
2022-12-03T02:51:35.757Z,0.43
2022-12-03T02:52:35.686Z,0.45
2022-12-03T02:53:35.633Z,0.45
2022-12-03T02:54:35.570Z,0.31
2022-12-03T02:55:37.438Z,0.38
2022-12-03T02:56:35.420Z,0.43
2022-12-03T02:57:35.356Z,0.41
2022-12-03T02:58:35.280Z,0.35
2022-12-03T02:59:35.251Z,0.40
2022-12-03T03:00:35.285Z,0.41
2022-12-03T03:01:35.204Z,0.41
2022-12-03T03:02:35.102Z,0.43
2022-12-03T03:03:34.930Z,0.45
2022-12-03T03:04:34.824Z,0.43
2022-12-03T03:05:34.747Z,0.41
2022-12-03T03:06:34.742Z,0.45
2022-12-03T03:07:34.764Z,0.44
2022-12-03T03:08:34.583Z,0.43
2022-12-03T03:09:34.456Z,0.44
2022-12-03T03:10:34.408Z,0.44
2022-12-03T03:11:34.398Z,0.44
2022-12-03T03:12:39.065Z,0.49
2022-12-03T03:13:34.173Z,0.43
2022-12-03T03:14:34.134Z,0.34
2022-12-03T03:15:34.183Z,0.35
2022-12-03T03:16:34.079Z,0.28
2022-12-03T03:17:33.879Z,0.37
2022-12-03T03:18:33.888Z,0.31
2022-12-03T03:19:33.739Z,0.28
2022-12-03T03:20:33.692Z,0.30
2022-12-03T03:21:33.591Z,0.33
2022-12-03T03:22:33.615Z,0.26
2022-12-03T03:23:33.499Z,0.30
2022-12-03T03:24:33.404Z,0.37
2022-12-03T03:25:33.326Z,0.34
2022-12-03T03:26:33.242Z,0.45
2022-12-03T03:27:33.159Z,0.37
2022-12-03T03:28:33.191Z,0.28
2022-12-03T03:29:33.033Z,0.40
2022-12-03T03:30:33.057Z,0.41
2022-12-03T03:31:33.020Z,0.48
2022-12-03T03:32:32.906Z,0.43
2022-12-03T03:33:32.761Z,0.41
2022-12-03T03:34:32.672Z,0.34
2022-12-03T03:35:32.650Z,0.45
2022-12-03T03:36:32.527Z,0.48
2022-12-03T03:37:32.549Z,0.34
2022-12-03T03:38:32.379Z,0.34
2022-12-03T03:39:32.316Z,0.43
2022-12-03T03:40:32.222Z,0.45
2022-12-03T03:41:32.234Z,0.44
2022-12-03T03:42:32.113Z,0.48
2022-12-03T03:43:32.016Z,0.34
2022-12-03T03:44:31.944Z,0.37
2022-12-03T03:45:31.920Z,0.40
2022-12-03T03:46:31.864Z,0.43
2022-12-03T03:47:31.722Z,0.48
2022-12-03T03:48:31.655Z,0.38
2022-12-03T03:49:31.611Z,0.37
2022-12-03T03:50:31.502Z,0.34
2022-12-03T03:51:31.569Z,0.28
2022-12-03T03:52:31.361Z,0.43
2022-12-03T03:53:31.484Z,0.35
2022-12-03T03:54:31.220Z,0.31
2022-12-03T03:55:31.178Z,0.26
2022-12-03T03:56:31.081Z,0.34
2022-12-03T03:57:30.996Z,0.34
2022-12-03T03:58:30.970Z,0.31
2022-12-03T03:59:30.879Z,0.26
2022-12-03T04:00:30.787Z,0.33
2022-12-03T04:01:30.844Z,0.28
2022-12-03T04:02:30.641Z,0.26
2022-12-03T04:03:30.563Z,0.30
2022-12-03T04:04:30.558Z,0.33
2022-12-03T04:05:30.524Z,0.30
2022-12-03T04:06:30.358Z,0.34
2022-12-03T04:07:30.386Z,0.28
2022-12-03T04:08:30.230Z,0.25
2022-12-03T04:09:30.141Z,0.22
2022-12-03T04:10:30.146Z,0.28
2022-12-03T04:11:30.094Z,0.28
2022-12-03T04:12:29.958Z,0.28
2022-12-03T04:13:29.872Z,0.31
2022-12-03T04:14:29.799Z,0.25
2022-12-03T04:15:29.696Z,0.26
2022-12-03T04:16:29.814Z,0.30
2022-12-03T04:17:29.613Z,0.33
2022-12-03T04:18:29.614Z,0.30
2022-12-03T04:19:29.411Z,0.28
2022-12-03T04:20:29.345Z,0.31
2022-12-03T04:21:29.282Z,0.22
2022-12-03T04:22:29.214Z,0.25
2022-12-03T04:23:31.047Z,0.30
2022-12-03T04:24:29.072Z,0.33
2022-12-03T04:25:29.063Z,0.23
2022-12-03T04:26:28.917Z,0.26
2022-12-03T04:27:28.832Z,0.30
2022-12-03T04:28:28.900Z,0.37
2022-12-03T04:29:28.783Z,0.30
2022-12-03T04:30:28.677Z,0.30
2022-12-03T04:31:28.577Z,0.31
2022-12-03T04:32:28.480Z,0.31
2022-12-03T04:33:28.396Z,0.34
2022-12-03T04:34:28.345Z,0.28
2022-12-03T04:35:28.288Z,0.31
2022-12-03T04:36:28.180Z,0.30
2022-12-03T04:37:28.110Z,0.34
2022-12-03T04:38:28.059Z,0.31
2022-12-03T04:39:28.079Z,0.37
2022-12-03T04:40:27.894Z,0.40
2022-12-03T04:41:27.825Z,0.31
2022-12-03T04:42:27.774Z,0.41
2022-12-03T04:43:27.766Z,0.40
2022-12-03T04:44:27.606Z,0.34
2022-12-03T04:45:27.614Z,0.40
2022-12-03T04:46:27.517Z,0.30
2022-12-03T04:47:27.418Z,0.28
2022-12-03T04:48:27.325Z,0.22
2022-12-03T04:49:27.265Z,0.23
2022-12-03T04:50:27.169Z,0.28
2022-12-03T04:51:27.105Z,0.30
2022-12-03T04:52:27.040Z,0.28
2022-12-03T04:53:26.955Z,0.31
2022-12-03T04:54:26.894Z,0.34
2022-12-03T04:55:26.809Z,0.25
2022-12-03T04:56:26.805Z,0.28
2022-12-03T04:57:26.778Z,0.33
2022-12-03T04:58:26.600Z,0.26
2022-12-03T04:59:26.557Z,0.34
2022-12-03T05:00:26.449Z,0.30
2022-12-03T05:01:26.470Z,0.31
2022-12-03T05:02:26.351Z,0.26
2022-12-03T05:03:26.246Z,0.34
2022-12-03T05:04:26.180Z,0.31
2022-12-03T05:05:26.103Z,0.28
2022-12-03T05:06:26.022Z,0.26
2022-12-03T05:07:25.969Z,0.28
2022-12-03T05:08:25.871Z,0.38
2022-12-03T05:09:25.827Z,0.25
2022-12-03T05:10:25.730Z,0.37
2022-12-03T05:11:25.671Z,0.35
2022-12-03T05:12:25.583Z,0.34
2022-12-03T05:13:25.521Z,0.44
2022-12-03T05:14:25.479Z,0.49
2022-12-03T05:15:25.390Z,0.35
2022-12-03T05:16:25.350Z,0.40
2022-12-03T05:17:25.222Z,0.41
2022-12-03T05:18:25.210Z,0.41
2022-12-03T05:19:25.141Z,0.30
2022-12-03T05:20:25.004Z,0.34
2022-12-03T05:21:24.942Z,0.35
2022-12-03T05:22:24.950Z,0.31
2022-12-03T05:23:24.808Z,0.26
2022-12-03T05:24:24.824Z,0.28
2022-12-03T05:25:24.684Z,0.26
2022-12-03T05:26:24.658Z,0.34
2022-12-03T05:27:24.579Z,0.30
2022-12-03T05:28:24.504Z,0.34
2022-12-03T05:29:24.371Z,0.31
2022-12-03T05:30:24.383Z,0.33
2022-12-03T05:31:24.296Z,0.31
2022-12-03T05:32:24.159Z,0.28
2022-12-03T05:33:24.130Z,0.30
2022-12-03T05:34:23.995Z,0.26
2022-12-03T05:35:24.098Z,0.20
2022-12-03T05:36:23.857Z,0.28
2022-12-03T05:37:23.814Z,0.22
2022-12-03T05:38:23.710Z,0.20
2022-12-03T05:39:23.636Z,0.35
2022-12-03T05:40:23.613Z,0.30
2022-12-03T05:41:23.503Z,0.26
2022-12-03T05:42:23.427Z,0.25
2022-12-03T05:43:23.350Z,0.23
2022-12-03T05:44:23.354Z,0.30
2022-12-03T05:45:23.210Z,0.35
2022-12-03T05:46:23.191Z,0.26
2022-12-03T05:47:23.087Z,0.28
2022-12-03T05:48:23.016Z,0.30
2022-12-03T05:49:22.967Z,0.25
2022-12-03T05:50:22.849Z,0.30
2022-12-03T05:51:22.774Z,0.31
2022-12-03T05:52:22.705Z,0.33
2022-12-03T05:53:22.665Z,0.28
2022-12-03T05:54:22.554Z,0.30
2022-12-03T05:55:22.503Z,0.30
2022-12-03T05:56:22.429Z,0.26
2022-12-03T05:57:22.353Z,0.25
2022-12-03T05:58:22.374Z,0.26
2022-12-03T05:59:22.230Z,0.20
2022-12-03T06:00:22.131Z,0.15
2022-12-03T06:01:22.058Z,0.15
2022-12-03T06:02:22.135Z,0.13
2022-12-03T06:03:22.116Z,0.13
2022-12-03T06:04:21.843Z,0.15
2022-12-03T06:05:22.350Z,0.19
2022-12-03T06:06:21.713Z,0.25
2022-12-03T06:07:21.622Z,0.23
2022-12-03T06:08:21.547Z,0.17
2022-12-03T06:09:21.549Z,0.17
2022-12-03T06:10:21.480Z,0.16
2022-12-03T06:11:21.447Z,0.16
2022-12-03T06:12:21.286Z,0.26
2022-12-03T06:13:21.183Z,0.10
2022-12-03T06:14:21.146Z,0.15
2022-12-03T06:15:21.044Z,0.12
2022-12-03T06:16:21.065Z,0.12
2022-12-03T06:17:20.964Z,0.13
2022-12-03T06:18:20.851Z,-0.01
2022-12-03T06:19:20.824Z,0.15
2022-12-03T06:20:20.780Z,0.10
2022-12-03T06:21:20.649Z,0.19
2022-12-03T06:22:20.533Z,0.04
2022-12-03T06:23:20.497Z,0.08
2022-12-03T06:24:20.447Z,0.08
2022-12-03T06:25:20.321Z,-0.03
2022-12-03T06:26:20.306Z,-0.03
2022-12-03T06:27:20.198Z,0.02
2022-12-03T06:28:20.163Z,-0.01
2022-12-03T06:29:20.057Z,0.04
2022-12-03T06:30:19.961Z,0.02
2022-12-03T06:31:19.991Z,0.02
2022-12-03T06:32:19.815Z,0.12
2022-12-03T06:33:19.795Z,0.07
2022-12-03T06:34:19.766Z,0.02
2022-12-03T06:35:19.606Z,-0.06
2022-12-03T06:36:23.037Z,0.08
2022-12-03T06:37:19.474Z,-0.05
2022-12-03T06:38:19.403Z,-0.01
2022-12-03T06:39:19.323Z,-0.09
2022-12-03T06:40:19.247Z,-0.03
2022-12-03T06:41:19.170Z,0.07
2022-12-03T06:42:19.132Z,-0.06
2022-12-03T06:43:19.030Z,-0.05
2022-12-03T06:44:18.946Z,-0.06
2022-12-03T06:45:18.888Z,-0.02
2022-12-03T06:46:18.894Z,-0.06
2022-12-03T06:47:18.731Z,-0.02
2022-12-03T06:48:18.699Z,-0.03
2022-12-03T06:49:18.804Z,-0.14
2022-12-03T06:50:18.712Z,0.04
2022-12-03T06:51:18.452Z,-0.03
2022-12-03T06:52:18.389Z,0.01
2022-12-03T06:53:18.294Z,0.07
2022-12-03T06:54:18.290Z,-0.01
2022-12-03T06:55:18.152Z,0.15
2022-12-03T06:56:22.049Z,0.10
2022-12-03T06:57:18.181Z,0.07
2022-12-03T06:58:17.945Z,0.13
2022-12-03T06:59:17.860Z,0.16
2022-12-03T07:00:17.828Z,0.23
2022-12-03T07:01:17.777Z,0.22
2022-12-03T07:02:17.646Z,0.16
2022-12-03T07:03:17.637Z,0.16
2022-12-03T07:04:17.509Z,0.26
2022-12-03T07:05:17.440Z,0.20
2022-12-03T07:06:17.360Z,0.17
2022-12-03T07:07:17.289Z,0.16
2022-12-03T07:08:17.409Z,0.10
2022-12-03T07:09:17.152Z,0.10
2022-12-03T07:10:17.133Z,0.07
2022-12-03T07:11:17.021Z,0.10
2022-12-03T07:12:17.013Z,0.02
2022-12-03T07:13:16.853Z,0.04
2022-12-03T07:14:16.801Z,0.04
2022-12-03T07:15:16.805Z,-0.03
2022-12-03T07:16:16.727Z,-0.02
2022-12-03T07:17:16.587Z,0.15
2022-12-03T07:18:16.528Z,0.10
2022-12-03T07:19:16.425Z,0.12
2022-12-03T07:20:16.373Z,0.15
2022-12-03T07:21:16.280Z,0.07
2022-12-03T07:22:16.209Z,0.05
2022-12-03T07:23:16.217Z,-0.02
2022-12-03T07:24:16.058Z,0.01
2022-12-03T07:25:21.420Z,-0.01
2022-12-03T07:26:15.952Z,0.12
2022-12-03T07:27:15.866Z,0.08
2022-12-03T07:28:15.780Z,0.15
2022-12-03T07:29:15.710Z,0.04
2022-12-03T07:30:15.644Z,0.05
2022-12-03T07:31:15.637Z,0.07
2022-12-03T07:32:15.495Z,0.04
2022-12-03T07:33:15.596Z,0.07
2022-12-03T07:34:15.347Z,0.08
2022-12-03T07:35:15.284Z,0.07
2022-12-03T07:36:15.191Z,0.10
2022-12-03T07:37:19.966Z,0.02
2022-12-03T07:38:15.079Z,-0.05
2022-12-03T07:39:15.005Z,-0.05
2022-12-03T07:40:14.972Z,-0.03
2022-12-03T07:41:14.836Z,-0.02
2022-12-03T07:42:14.806Z,-0.05
2022-12-03T07:43:14.766Z,0.07
2022-12-03T07:44:15.009Z,0.05
2022-12-03T07:45:14.551Z,0.07
2022-12-03T07:46:14.542Z,0.02
2022-12-03T07:47:14.464Z,0.07
2022-12-03T07:48:14.561Z,0.15
2022-12-03T07:49:14.279Z,0.07
2022-12-03T07:50:14.190Z,0.12
2022-12-03T07:51:15.471Z,0.07
2022-12-03T07:52:14.192Z,0.01
2022-12-03T07:53:13.979Z,0.02
2022-12-03T07:54:13.905Z,0.02
2022-12-03T07:55:14.004Z,-0.06
2022-12-03T07:56:13.747Z,-0.05
2022-12-03T07:57:13.709Z,-0.05
2022-12-03T07:58:13.604Z,-0.21
2022-12-03T07:59:13.538Z,-0.12
2022-12-03T08:00:13.482Z,-0.17
2022-12-03T08:01:13.483Z,-0.17
2022-12-03T08:02:18.118Z,-0.16
2022-12-03T08:03:13.243Z,-0.16
2022-12-03T08:04:13.308Z,-0.19
2022-12-03T08:05:13.101Z,-0.24
2022-12-03T08:06:13.164Z,-0.14
2022-12-03T08:07:12.963Z,-0.09
2022-12-03T08:08:12.967Z,-0.17
2022-12-03T08:09:16.024Z,-0.12
2022-12-03T08:10:12.832Z,-0.16
2022-12-03T08:11:12.690Z,-0.08
2022-12-03T08:12:12.595Z,-0.14
2022-12-03T08:13:12.604Z,-0.05
2022-12-03T08:14:12.446Z,-0.12
2022-12-03T08:15:12.400Z,-0.17
2022-12-03T08:16:12.403Z,-0.17
2022-12-03T08:17:12.289Z,-0.19
2022-12-03T08:18:12.316Z,-0.09
2022-12-03T08:19:12.137Z,-0.09
2022-12-03T08:20:12.024Z,-0.14
2022-12-03T08:21:11.951Z,-0.03
2022-12-03T08:22:11.941Z,-0.08
2022-12-03T08:23:11.951Z,-0.06
2022-12-03T08:24:11.750Z,-0.12
2022-12-03T08:25:11.659Z,-0.05
2022-12-03T08:26:11.605Z,-0.08
2022-12-03T08:27:11.507Z,-0.02
2022-12-03T08:28:11.477Z,-0.08
2022-12-03T08:29:11.364Z,-0.02
2022-12-03T08:30:11.292Z,-0.06
2022-12-03T08:31:11.419Z,-0.06
2022-12-03T08:32:11.253Z,0.01
2022-12-03T08:33:11.090Z,0.02
2022-12-03T08:34:11.013Z,0.08
2022-12-03T08:35:10.940Z,0.01
2022-12-03T08:36:10.856Z,0.15
2022-12-03T08:37:10.809Z,-0.02
2022-12-03T08:38:10.717Z,0.04
2022-12-03T08:39:10.640Z,0.07
2022-12-03T08:40:10.565Z,0.05
2022-12-03T08:41:10.528Z,0.07
2022-12-03T08:42:13.663Z,0.15
2022-12-03T08:43:10.369Z,0.04
2022-12-03T08:44:10.397Z,0.15
2022-12-03T08:45:10.259Z,0.15
2022-12-03T08:46:10.190Z,0.15
2022-12-03T08:47:10.076Z,0.01
2022-12-03T08:48:10.075Z,-0.01
2022-12-03T08:49:09.966Z,-0.05
2022-12-03T08:50:09.845Z,-0.09
2022-12-03T08:51:09.785Z,-0.13
2022-12-03T08:52:09.703Z,-0.01
2022-12-03T08:53:09.634Z,-0.05
2022-12-03T08:54:09.575Z,-0.03
2022-12-03T08:55:09.567Z,-0.02
2022-12-03T08:56:09.426Z,-0.05
2022-12-03T08:57:09.410Z,0.04
2022-12-03T08:58:09.303Z,-0.03
2022-12-03T08:59:09.269Z,-0.08
2022-12-03T09:00:09.128Z,-0.05
2022-12-03T09:01:09.148Z,0.02
2022-12-03T09:02:09.038Z,0.05
2022-12-03T09:03:08.960Z,-0.06
2022-12-03T09:04:09.063Z,-0.05
2022-12-03T09:05:08.767Z,-0.05
2022-12-03T09:06:08.740Z,0.08
2022-12-03T09:07:08.635Z,0.05
2022-12-03T09:08:08.784Z,0.07
2022-12-03T09:09:08.475Z,0.22
2022-12-03T09:10:08.951Z,0.04
2022-12-03T09:11:08.494Z,0.05
2022-12-03T09:12:08.293Z,-0.01
2022-12-03T09:13:08.400Z,-0.06
2022-12-03T09:14:08.115Z,-0.01
2022-12-03T09:15:08.317Z,0.08
2022-12-03T09:16:08.100Z,0.10
2022-12-03T09:17:08.023Z,-0.02
2022-12-03T09:18:07.926Z,-0.02
2022-12-03T09:19:08.040Z,0.08
2022-12-03T09:20:07.732Z,0.08
2022-12-03T09:21:07.804Z,-0.01
2022-12-03T09:22:07.631Z,0.13
2022-12-03T09:23:07.658Z,0.19
2022-12-03T09:24:07.409Z,0.10
2022-12-03T09:25:07.571Z,0.12
2022-12-03T09:26:07.371Z,0.12
2022-12-03T09:27:07.196Z,0.12
2022-12-03T09:28:07.276Z,0.20
2022-12-03T09:29:11.939Z,0.20
2022-12-03T09:30:07.003Z,0.31
2022-12-03T09:31:07.090Z,0.33
2022-12-03T09:32:06.858Z,0.35
2022-12-03T09:33:06.749Z,0.44
2022-12-03T09:34:06.804Z,0.44
2022-12-03T09:35:06.810Z,0.49
2022-12-03T09:36:06.656Z,0.59
2022-12-03T09:37:06.452Z,0.53
2022-12-03T09:38:06.435Z,0.49
2022-12-03T09:39:06.320Z,0.45
2022-12-03T09:40:06.244Z,0.52
2022-12-03T09:41:06.224Z,0.44
2022-12-03T09:42:06.195Z,0.57
2022-12-03T09:43:06.036Z,0.43
2022-12-03T09:44:07.726Z,0.57
2022-12-03T09:45:05.971Z,0.56
2022-12-03T09:46:06.053Z,0.56
2022-12-03T09:47:05.740Z,0.56
2022-12-03T09:48:05.664Z,0.59
2022-12-03T09:49:07.492Z,0.68
2022-12-03T09:50:05.580Z,0.57
2022-12-03T09:51:05.475Z,0.67
2022-12-03T09:52:05.385Z,0.57
2022-12-03T09:53:05.320Z,0.80
2022-12-03T09:54:05.242Z,0.70
2022-12-03T09:55:05.176Z,0.77
2022-12-03T09:56:05.108Z,0.74
2022-12-03T09:57:05.023Z,0.74
2022-12-03T09:58:04.969Z,0.78
2022-12-03T09:59:04.878Z,0.88
2022-12-03T10:00:04.809Z,0.92
2022-12-03T10:01:04.777Z,0.75
2022-12-03T10:02:04.837Z,0.80
2022-12-03T10:03:04.667Z,0.81
2022-12-03T10:04:04.587Z,0.80
2022-12-03T10:05:04.516Z,0.82
2022-12-03T10:06:04.388Z,0.82
2022-12-03T10:07:04.370Z,0.72
2022-12-03T10:08:04.356Z,0.81
2022-12-03T10:09:04.176Z,0.92
2022-12-03T10:10:04.117Z,0.93
2022-12-03T10:11:04.041Z,0.98
2022-12-03T10:12:03.985Z,0.92
2022-12-03T10:13:03.924Z,0.95
2022-12-03T10:14:03.809Z,0.82
2022-12-03T10:15:03.746Z,0.88
2022-12-03T10:16:03.688Z,0.80
2022-12-03T10:17:03.653Z,0.72
2022-12-03T10:18:03.566Z,0.71
2022-12-03T10:19:03.468Z,0.77
2022-12-03T10:20:03.428Z,0.77
2022-12-03T10:21:03.386Z,0.75
2022-12-03T10:22:03.257Z,0.75
2022-12-03T10:23:03.207Z,0.93
2022-12-03T10:24:03.095Z,0.92
2022-12-03T10:25:03.093Z,1.04
2022-12-03T10:26:02.967Z,0.92
2022-12-03T10:27:02.877Z,0.90
2022-12-03T10:28:02.824Z,0.90
2022-12-03T10:29:02.970Z,0.96
2022-12-03T10:30:02.671Z,1.00
2022-12-03T10:31:02.665Z,0.92
2022-12-03T10:32:02.533Z,0.88
2022-12-03T10:33:02.496Z,0.99
2022-12-03T10:34:02.482Z,1.00
2022-12-03T10:35:02.364Z,0.96
2022-12-03T10:36:02.297Z,0.82
2022-12-03T10:37:02.177Z,0.78
2022-12-03T10:38:02.121Z,0.74
2022-12-03T10:39:02.188Z,0.75
2022-12-03T10:40:01.976Z,0.74
2022-12-03T10:41:01.920Z,0.82
2022-12-03T10:42:01.819Z,0.70
2022-12-03T10:43:01.768Z,0.86
2022-12-03T10:44:01.702Z,0.78
2022-12-03T10:45:01.627Z,0.75
2022-12-03T10:46:04.133Z,0.77
2022-12-03T10:47:01.564Z,0.67
2022-12-03T10:48:01.388Z,0.64
2022-12-03T10:49:01.322Z,0.70
2022-12-03T10:50:01.294Z,0.72
2022-12-03T10:51:01.173Z,0.67
2022-12-03T10:52:01.129Z,0.71
2022-12-03T10:53:01.032Z,0.67
2022-12-03T10:54:01.004Z,0.62
2022-12-03T10:55:00.893Z,0.63
2022-12-03T10:56:00.824Z,0.59
2022-12-03T10:57:00.894Z,0.48
2022-12-03T10:58:00.676Z,0.53
2022-12-03T10:59:00.645Z,0.57
2022-12-03T11:00:00.582Z,0.56
2022-12-03T11:01:00.514Z,0.53
2022-12-03T11:02:00.484Z,0.70
2022-12-03T11:03:00.410Z,0.59
2022-12-03T11:04:00.327Z,0.56
2022-12-03T11:05:00.245Z,0.53
2022-12-03T11:06:00.104Z,0.64
2022-12-03T11:07:00.039Z,0.53
2022-12-03T11:08:00.016Z,0.56
2022-12-03T11:09:05.328Z,0.56
2022-12-03T11:09:59.823Z,0.59
2022-12-03T11:10:59.771Z,0.57
2022-12-03T11:11:59.711Z,0.53
2022-12-03T11:12:59.646Z,0.59
2022-12-03T11:13:59.553Z,0.62
2022-12-03T11:14:59.498Z,0.71
2022-12-03T11:15:59.462Z,0.74
2022-12-03T11:16:59.309Z,0.72
2022-12-03T11:17:59.286Z,0.68
2022-12-03T11:18:59.219Z,0.74
2022-12-03T11:19:59.151Z,0.77
2022-12-03T11:20:59.074Z,0.72
2022-12-03T11:21:59.034Z,0.74
2022-12-03T11:22:58.996Z,0.70
2022-12-03T11:23:58.848Z,0.63
2022-12-03T11:24:58.803Z,0.62
2022-12-03T11:25:58.713Z,0.71
2022-12-03T11:26:58.593Z,0.64
2022-12-03T11:27:58.598Z,0.72
2022-12-03T11:28:58.462Z,0.70
2022-12-03T11:29:58.411Z,0.77
2022-12-03T11:30:58.453Z,0.59
2022-12-03T11:31:58.259Z,0.59
2022-12-03T11:32:58.328Z,0.70
2022-12-03T11:33:58.144Z,0.71
2022-12-03T11:34:58.077Z,0.70
2022-12-03T11:35:58.041Z,0.74
2022-12-03T11:37:01.804Z,0.71
2022-12-03T11:37:57.833Z,0.80
2022-12-03T11:38:57.744Z,0.80
2022-12-03T11:39:57.753Z,0.71
2022-12-03T11:40:57.698Z,0.74
2022-12-03T11:41:57.663Z,0.71
2022-12-03T11:42:57.539Z,0.71
2022-12-03T11:43:57.424Z,0.71
2022-12-03T11:44:57.320Z,0.67
2022-12-03T11:46:02.703Z,0.77
2022-12-03T11:46:57.250Z,0.64
2022-12-03T11:47:57.091Z,0.64
2022-12-03T11:48:57.099Z,0.68
2022-12-03T11:49:57.070Z,0.68
2022-12-03T11:50:56.874Z,0.57
2022-12-03T11:51:56.917Z,0.57
2022-12-03T11:52:56.798Z,0.68
2022-12-03T11:53:56.667Z,0.56
2022-12-03T11:54:56.847Z,0.74
2022-12-03T11:56:00.110Z,0.78
2022-12-03T11:56:56.579Z,0.57
2022-12-03T11:57:56.388Z,0.72
2022-12-03T11:58:56.432Z,0.68
2022-12-03T11:59:56.237Z,0.75
2022-12-03T12:00:56.242Z,0.70
2022-12-03T12:01:56.246Z,0.77
2022-12-03T12:02:56.208Z,0.64
2022-12-03T12:03:56.225Z,0.71
2022-12-03T12:04:55.896Z,0.56
2022-12-03T12:05:55.811Z,0.70
2022-12-03T12:06:55.851Z,0.68
2022-12-03T12:07:55.714Z,0.68
2022-12-03T12:08:55.588Z,0.81
2022-12-03T12:09:55.974Z,0.74
2022-12-03T12:10:55.463Z,0.77
2022-12-03T12:11:55.373Z,0.75
2022-12-03T12:12:55.468Z,0.72
2022-12-03T12:13:55.438Z,0.74
2022-12-03T12:14:55.192Z,0.60
2022-12-03T12:15:55.196Z,0.62
2022-12-03T12:16:55.043Z,0.63
2022-12-03T12:17:55.054Z,0.67
2022-12-03T12:18:55.757Z,0.70
2022-12-03T12:19:55.066Z,0.56
2022-12-03T12:20:54.743Z,0.53
2022-12-03T12:21:54.663Z,0.53
2022-12-03T12:22:54.590Z,0.59
2022-12-03T12:23:54.530Z,0.53
2022-12-03T12:24:54.454Z,0.60
2022-12-03T12:25:54.613Z,0.56
2022-12-03T12:26:54.380Z,0.56
2022-12-03T12:27:54.275Z,0.59
2022-12-03T12:28:54.273Z,0.56
2022-12-03T12:29:54.482Z,0.52
2022-12-03T12:30:54.165Z,0.57
2022-12-03T12:31:54.444Z,0.59
2022-12-03T12:32:53.904Z,0.59
2022-12-03T12:33:53.804Z,0.59
2022-12-03T12:34:53.736Z,0.56
2022-12-03T12:35:53.717Z,0.53
2022-12-03T12:36:53.583Z,0.57
2022-12-03T12:37:59.239Z,0.57
2022-12-03T12:38:53.445Z,0.53
2022-12-03T12:39:53.717Z,0.53
2022-12-03T12:40:53.317Z,0.51
2022-12-03T12:41:53.268Z,0.44
2022-12-03T12:42:53.214Z,0.48
2022-12-03T12:43:53.115Z,0.49
2022-12-03T12:44:53.007Z,0.62
2022-12-03T12:45:52.954Z,0.44
2022-12-03T12:46:52.949Z,0.49
2022-12-03T12:47:52.868Z,0.59
2022-12-03T12:48:57.957Z,0.62
2022-12-03T12:49:53.003Z,0.56
2022-12-03T12:50:52.584Z,0.59
2022-12-03T12:51:52.520Z,0.59
2022-12-03T12:52:52.455Z,0.59
2022-12-03T12:53:52.368Z,0.72
2022-12-03T12:54:52.349Z,0.74
2022-12-03T12:55:52.215Z,0.68
2022-12-03T12:56:52.166Z,0.72
2022-12-03T12:57:52.123Z,0.62
2022-12-03T12:58:52.023Z,0.71
2022-12-03T12:59:52.266Z,0.57
2022-12-03T13:00:51.948Z,0.57
2022-12-03T13:01:51.924Z,0.53
2022-12-03T13:02:51.784Z,0.57
2022-12-03T13:03:51.644Z,0.59
2022-12-03T13:04:51.575Z,0.59
2022-12-03T13:05:51.511Z,0.51
2022-12-03T13:06:51.433Z,0.67
2022-12-03T13:07:51.442Z,0.57
2022-12-03T13:08:51.281Z,0.56
2022-12-03T13:09:51.385Z,0.53
2022-12-03T13:10:51.142Z,0.57
2022-12-03T13:11:51.085Z,0.53
2022-12-03T13:12:50.996Z,0.49
2022-12-03T13:13:50.997Z,0.59
2022-12-03T13:14:50.874Z,0.59